Airport ID:KFOT
Update Time (UTC):17 JAN 19 23:18
Wind Speed (Knots):CALM
Wind Direction (Magnetic):
Temperature (°C):10
Dew Point (°C):10
Humidity (%):100
Altimeter (inHg):29.98
Density Altitude (Feet):
Visibility (Miles):5
Clouds (Hundreds of feet):SCT026 BKN032 OVC046
Present Weather:
METAR:METAR KFOT 172315Z AUTO 00000KT 3SM SCT026 BKN036 BKN046 10/10 A2997 RMK AO1

The data displayed is for advisory purposes only and is not to be used for flight planning or operations.

This page is not automatically refreshed. Reload the page to see current data.